sensor_id;sensor_type;location;lat;lon;timestamp;pressure;altitude;pressure_sealevel;temperature;humidity
42727;BME280;28372;56.832;60.658;2023-09-18T00:01:57;98145.16;;;14.83;68.09
42727;BME280;28372;56.832;60.658;2023-09-18T00:04:25;98144.34;;;14.82;68.46
42727;BME280;28372;56.832;60.658;2023-09-18T00:06:53;98145.91;;;14.80;68.22
42727;BME280;28372;56.832;60.658;2023-09-18T00:09:21;98145.91;;;14.80;68.88
42727;BME280;28372;56.832;60.658;2023-09-18T00:11:49;98134.28;;;14.72;68.78
42727;BME280;28372;56.832;60.658;2023-09-18T00:14:16;98146.31;;;14.82;69.01
42727;BME280;28372;56.832;60.658;2023-09-18T00:16:44;98148.28;;;14.81;69.17
42727;BME280;28372;56.832;60.658;2023-09-18T00:19:25;98145.16;;;14.79;69.83
42727;BME280;28372;56.832;60.658;2023-09-18T00:21:53;98158.00;;;14.79;70.46
42727;BME280;28372;56.832;60.658;2023-09-18T00:24:21;98150.97;;;14.74;70.31
42727;BME280;28372;56.832;60.658;2023-09-18T00:26:50;98135.03;;;14.62;70.83
42727;BME280;28372;56.832;60.658;2023-09-18T00:29:20;98144.38;;;14.71;70.98
42727;BME280;28372;56.832;60.658;2023-09-18T00:31:49;98149.03;;;14.71;71.39
42727;BME280;28372;56.832;60.658;2023-09-18T00:34:16;98154.88;;;14.69;71.69
42727;BME280;28372;56.832;60.658;2023-09-18T00:36:44;98150.22;;;14.63;71.62
42727;BME280;28372;56.832;60.658;2023-09-18T00:39:12;98155.66;;;14.63;71.53
42727;BME280;28372;56.832;60.658;2023-09-18T00:41:39;98152.16;;;14.62;71.83
42727;BME280;28372;56.832;60.658;2023-09-18T00:44:08;98148.25;;;14.60;72.04
42727;BME280;28372;56.832;60.658;2023-09-18T00:46:36;98154.47;;;14.56;71.45
42727;BME280;28372;56.832;60.658;2023-09-18T00:49:04;98148.63;;;14.54;71.63
42727;BME280;28372;56.832;60.658;2023-09-18T00:51:32;98156.81;;;14.58;71.96
42727;BME280;28372;56.832;60.658;2023-09-18T00:54:00;98139.31;;;14.52;71.78
42727;BME280;28372;56.832;60.658;2023-09-18T00:56:28;98144.38;;;14.53;71.50
42727;BME280;28372;56.832;60.658;2023-09-18T00:58:55;98139.31;;;14.52;71.37
42727;BME280;28372;56.832;60.658;2023-09-18T01:01:23;98148.63;;;14.51;71.11
42727;BME280;28372;56.832;60.658;2023-09-18T01:03:51;98143.19;;;14.51;70.82
42727;BME280;28372;56.832;60.658;2023-09-18T01:06:21;98143.59;;;14.49;70.82
42727;BME280;28372;56.832;60.658;2023-09-18T01:08:49;98138.13;;;14.49;71.33
42727;BME280;28372;56.832;60.658;2023-09-18T01:11:38;98153.72;;;14.70;74.08
42727;BME280;28372;56.832;60.658;2023-09-18T01:14:31;98147.47;;;14.59;71.93
42727;BME280;28372;56.832;60.658;2023-09-18T01:17:01;98146.31;;;14.49;70.49
42727;BME280;28372;56.832;60.658;2023-09-18T01:19:36;98142.41;;;14.57;71.88
42727;BME280;28372;56.832;60.658;2023-09-18T01:22:06;98143.97;;;14.44;70.71
42727;BME280;28372;56.832;60.658;2023-09-18T01:24:35;98141.25;;;14.41;71.08
42727;BME280;28372;56.832;60.658;2023-09-18T01:27:04;98146.69;;;14.41;71.37
42727;BME280;28372;56.832;60.658;2023-09-18T01:29:32;98152.53;;;14.35;71.13
42727;BME280;28372;56.832;60.658;2023-09-18T01:32:00;98145.13;;;14.36;71.23
42727;BME280;28372;56.832;60.658;2023-09-18T01:34:33;98151.34;;;14.47;73.80
42727;BME280;28372;56.832;60.658;2023-09-18T01:37:04;98150.19;;;14.37;71.78
42727;BME280;28372;56.832;60.658;2023-09-18T01:39:34;98152.53;;;14.35;72.08
42727;BME280;28372;56.832;60.658;2023-09-18T01:42:03;98151.34;;;14.33;72.18
42727;BME280;28372;56.832;60.658;2023-09-18T01:44:33;98143.56;;;14.28;71.95
42727;BME280;28372;56.832;60.658;2023-09-18T01:47:03;98151.75;;;14.38;73.06
42727;BME280;28372;56.832;60.658;2023-09-18T01:49:36;98156.03;;;14.47;74.11
42727;BME280;28372;56.832;60.658;2023-09-18T01:52:05;98148.63;;;14.44;73.11
42727;BME280;28372;56.832;60.658;2023-09-18T01:54:34;98158.34;;;14.41;72.66
42727;BME280;28372;56.832;60.658;2023-09-18T01:57:03;98153.31;;;14.39;72.78
42727;BME280;28372;56.832;60.658;2023-09-18T01:59:31;98151.75;;;14.42;72.76
42727;BME280;28372;56.832;60.658;2023-09-18T02:01:59;98155.25;;;14.46;73.62
42727;BME280;28372;56.832;60.658;2023-09-18T02:04:29;98159.13;;;14.52;73.82
42727;BME280;28372;56.832;60.658;2023-09-18T02:07:17;98147.88;;;14.72;75.10
42727;BME280;28372;56.832;60.658;2023-09-18T02:09:45;98154.47;;;15.00;74.53
42727;BME280;28372;56.832;60.658;2023-09-18T02:12:12;98147.75;;;15.26;73.31
42727;BME280;28372;56.832;60.658;2023-09-18T02:14:45;98149.28;;;15.45;70.49
42727;BME280;28372;56.832;60.658;2023-09-18T02:17:13;98158.13;;;15.71;69.61
42727;BME280;28372;56.832;60.658;2023-09-18T02:19:41;98155.28;;;15.96;68.47
42727;BME280;28372;56.832;60.658;2023-09-18T02:22:10;98156.69;;;16.26;67.23
42727;BME280;28372;56.832;60.658;2023-09-18T02:24:38;98152.16;;;16.57;65.72
42727;BME280;28372;56.832;60.658;2023-09-18T02:27:06;98157.69;;;16.95;63.77
42727;BME280;28372;56.832;60.658;2023-09-18T02:29:34;98162.06;;;17.27;62.00
42727;BME280;28372;56.832;60.658;2023-09-18T02:32:01;98158.59;;;17.58;59.74
42727;BME280;28372;56.832;60.658;2023-09-18T02:34:30;98150.41;;;17.85;58.77
42727;BME280;28372;56.832;60.658;2023-09-18T02:36:58;98153.41;;;18.25;57.29
42727;BME280;28372;56.832;60.658;2023-09-18T02:39:25;98157.53;;;18.61;56.21
42727;BME280;28372;56.832;60.658;2023-09-18T02:41:53;98146.00;;;18.97;54.72
42727;BME280;28372;56.832;60.658;2023-09-18T02:44:21;98151.19;;;19.35;53.58
42727;BME280;28372;56.832;60.658;2023-09-18T02:46:49;98152.41;;;19.71;52.44
42727;BME280;28372;56.832;60.658;2023-09-18T02:49:16;98145.84;;;20.05;51.34
42727;BME280;28372;56.832;60.658;2023-09-18T02:51:44;98144.31;;;20.36;49.98
42727;BME280;28372;56.832;60.658;2023-09-18T02:54:12;98148.53;;;20.74;48.70
42727;BME280;28372;56.832;60.658;2023-09-18T02:56:40;98140.56;;;21.09;47.64
42727;BME280;28372;56.832;60.658;2023-09-18T02:59:07;98148.09;;;21.51;46.67
42727;BME280;28372;56.832;60.658;2023-09-18T03:01:36;98146.28;;;21.86;45.58
42727;BME280;28372;56.832;60.658;2023-09-18T03:04:04;98155.03;;;22.23;44.32
42727;BME280;28372;56.832;60.658;2023-09-18T03:06:33;98150.06;;;22.57;43.47
42727;BME280;28372;56.832;60.658;2023-09-18T03:09:01;98147.75;;;22.90;42.98
42727;BME280;28372;56.832;60.658;2023-09-18T03:11:29;98157.56;;;23.26;41.56
42727;BME280;28372;56.832;60.658;2023-09-18T03:13:58;98153.66;;;23.59;40.74
42727;BME280;28372;56.832;60.658;2023-09-18T03:16:26;98148.38;;;23.96;40.20
42727;BME280;28372;56.832;60.658;2023-09-18T03:18:53;98150.16;;;24.31;39.46
42727;BME280;28372;56.832;60.658;2023-09-18T03:21:21;98149.97;;;24.66;38.30
42727;BME280;28372;56.832;60.658;2023-09-18T03:23:49;98142.03;;;24.95;38.12
42727;BME280;28372;56.832;60.658;2023-09-18T03:26:17;98145.84;;;25.26;37.22
42727;BME280;28372;56.832;60.658;2023-09-18T03:28:45;98148.31;;;25.52;36.59
42727;BME280;28372;56.832;60.658;2023-09-18T03:31:13;98150.53;;;25.81;35.80
42727;BME280;28372;56.832;60.658;2023-09-18T03:33:41;98138.31;;;26.06;34.92
42727;BME280;28372;56.832;60.658;2023-09-18T03:36:09;98141.06;;;26.40;34.57
42727;BME280;28372;56.832;60.658;2023-09-18T03:38:38;98138.88;;;26.77;33.83
42727;BME280;28372;56.832;60.658;2023-09-18T03:41:07;98140.97;;;27.07;33.15
42727;BME280;28372;56.832;60.658;2023-09-18T03:43:35;98138.56;;;27.39;33.21
42727;BME280;28372;56.832;60.658;2023-09-18T03:46:04;98148.69;;;27.72;32.46
42727;BME280;28372;56.832;60.658;2023-09-18T03:48:38;98136.31;;;28.02;32.04
42727;BME280;28372;56.832;60.658;2023-09-18T03:51:06;98134.91;;;28.28;31.61
42727;BME280;28372;56.832;60.658;2023-09-18T03:53:35;98144.19;;;28.60;31.14
42727;BME280;28372;56.832;60.658;2023-09-18T03:56:03;98136.75;;;28.87;30.81
42727;BME280;28372;56.832;60.658;2023-09-18T03:58:31;98139.28;;;29.11;29.96
42727;BME280;28372;56.832;60.658;2023-09-18T04:01:02;98132.53;;;29.18;29.26
42727;BME280;28372;56.832;60.658;2023-09-18T04:03:30;98127.41;;;29.37;28.51
42727;BME280;28372;56.832;60.658;2023-09-18T04:05:59;98131.66;;;29.59;28.26
42727;BME280;28372;56.832;60.658;2023-09-18T04:08:26;98135.00;;;29.95;27.58
42727;BME280;28372;56.832;60.658;2023-09-18T04:10:55;98139.25;;;30.22;27.50
42727;BME280;28372;56.832;60.658;2023-09-18T04:13:24;98144.19;;;30.38;27.24
42727;BME280;28372;56.832;60.658;2023-09-18T04:15:52;98134.28;;;30.37;27.09
42727;BME280;28372;56.832;60.658;2023-09-18T04:18:25;98132.28;;;30.44;27.46
42727;BME280;28372;56.832;60.658;2023-09-18T04:20:53;98123.53;;;30.68;26.86
42727;BME280;28372;56.832;60.658;2023-09-18T04:23:26;98129.91;;;30.74;26.50
42727;BME280;28372;56.832;60.658;2023-09-18T04:25:54;98138.66;;;30.44;27.25
42727;BME280;28372;56.832;60.658;2023-09-18T04:28:22;98142.53;;;31.30;26.33
42727;BME280;28372;56.832;60.658;2023-09-18T04:30:50;98128.31;;;31.56;26.15
42727;BME280;28372;56.832;60.658;2023-09-18T04:33:21;98119.72;;;31.82;25.75
42727;BME280;28372;56.832;60.658;2023-09-18T04:35:49;98120.47;;;32.17;25.48
42727;BME280;28372;56.832;60.658;2023-09-18T04:38:17;98122.69;;;32.47;25.33
42727;BME280;28372;56.832;60.658;2023-09-18T04:40:47;98117.28;;;32.71;24.97
42727;BME280;28372;56.832;60.658;2023-09-18T04:43:15;98116.91;;;32.92;24.88
42727;BME280;28372;56.832;60.658;2023-09-18T04:45:44;98127.75;;;33.12;24.15
42727;BME280;28372;56.832;60.658;2023-09-18T04:48:13;98115.09;;;33.42;23.78
42727;BME280;28372;56.832;60.658;2023-09-18T04:50:42;98116.41;;;33.71;23.62
42727;BME280;28372;56.832;60.658;2023-09-18T04:53:10;98103.00;;;33.89;22.88
42727;BME280;28372;56.832;60.658;2023-09-18T04:55:37;98109.84;;;34.18;23.43
42727;BME280;28372;56.832;60.658;2023-09-18T04:58:06;98106.69;;;34.27;22.81
42727;BME280;28372;56.832;60.658;2023-09-18T05:00:34;98115.56;;;34.56;22.42
42727;BME280;28372;56.832;60.658;2023-09-18T05:03:02;98116.59;;;34.78;22.11
42727;BME280;28372;56.832;60.658;2023-09-18T05:05:30;98109.09;;;34.86;21.96
42727;BME280;28372;56.832;60.658;2023-09-18T05:07:58;98112.59;;;34.92;21.51
42727;BME280;28372;56.832;60.658;2023-09-18T05:10:26;98108.03;;;35.08;21.87
42727;BME280;28372;56.832;60.658;2023-09-18T05:12:54;98115.44;;;35.25;21.61
42727;BME280;28372;56.832;60.658;2023-09-18T05:15:26;98111.47;;;35.53;20.94
42727;BME280;28372;56.832;60.658;2023-09-18T05:17:58;98122.72;;;35.85;20.82
42727;BME280;28372;56.832;60.658;2023-09-18T05:20:28;98113.13;;;36.07;20.86
42727;BME280;28372;56.832;60.658;2023-09-18T05:22:57;98116.16;;;36.23;20.15
42727;BME280;28372;56.832;60.658;2023-09-18T05:25:27;98113.91;;;36.34;20.17
42727;BME280;28372;56.832;60.658;2023-09-18T05:27:56;98109.56;;;36.47;20.40
42727;BME280;28372;56.832;60.658;2023-09-18T05:30:32;98109.47;;;36.39;19.91
42727;BME280;28372;56.832;60.658;2023-09-18T05:33:02;98106.50;;;36.72;19.90
42727;BME280;28372;56.832;60.658;2023-09-18T05:35:35;98105.63;;;36.90;19.63
42727;BME280;28372;56.832;60.658;2023-09-18T05:38:06;98105.00;;;36.17;20.67
42727;BME280;28372;56.832;60.658;2023-09-18T05:40:34;98104.56;;;37.14;19.55
42727;BME280;28372;56.832;60.658;2023-09-18T05:43:02;98096.09;;;37.28;19.29
42727;BME280;28372;56.832;60.658;2023-09-18T05:45:30;98101.53;;;37.47;19.60
42727;BME280;28372;56.832;60.658;2023-09-18T05:48:00;98100.50;;;37.58;19.49
42727;BME280;28372;56.832;60.658;2023-09-18T05:50:35;98092.25;;;37.81;18.97
42727;BME280;28372;56.832;60.658;2023-09-18T05:53:06;98084.03;;;37.91;18.93
42727;BME280;28372;56.832;60.658;2023-09-18T05:55:34;98091.47;;;37.80;18.88
42727;BME280;28372;56.832;60.658;2023-09-18T05:58:02;98084.28;;;38.00;18.06
42727;BME280;28372;56.832;60.658;2023-09-18T06:00:32;98083.22;;;38.11;18.26
42727;BME280;28372;56.832;60.658;2023-09-18T06:03:00;98089.53;;;38.25;17.92
42727;BME280;28372;56.832;60.658;2023-09-18T06:05:28;98081.63;;;38.24;18.00
42727;BME280;28372;56.832;60.658;2023-09-18T06:07:59;98081.47;;;38.29;18.28
42727;BME280;28372;56.832;60.658;2023-09-18T06:10:27;98082.31;;;38.45;17.82
42727;BME280;28372;56.832;60.658;2023-09-18T06:12:55;98075.50;;;38.41;18.10
42727;BME280;28372;56.832;60.658;2023-09-18T06:15:23;98081.22;;;38.56;17.75
42727;BME280;28372;56.832;60.658;2023-09-18T06:17:51;98078.13;;;38.75;17.78
42727;BME280;28372;56.832;60.658;2023-09-18T06:20:18;98074.22;;;38.94;17.61
42727;BME280;28372;56.832;60.658;2023-09-18T06:22:46;98073.66;;;39.11;17.12
42727;BME280;28372;56.832;60.658;2023-09-18T06:25:14;98069.53;;;39.12;17.15
42727;BME280;28372;56.832;60.658;2023-09-18T06:27:42;98074.28;;;39.24;17.10
42727;BME280;28372;56.832;60.658;2023-09-18T06:30:10;98069.41;;;39.33;17.18
42727;BME280;28372;56.832;60.658;2023-09-18T06:32:38;98065.63;;;39.46;16.80
42727;BME280;28372;56.832;60.658;2023-09-18T06:35:08;98066.59;;;39.79;16.64
42727;BME280;28372;56.832;60.658;2023-09-18T06:37:36;98060.34;;;39.81;16.58
42727;BME280;28372;56.832;60.658;2023-09-18T06:40:04;98059.41;;;39.86;16.54
42727;BME280;28372;56.832;60.658;2023-09-18T06:42:33;98062.22;;;39.94;16.61
42727;BME280;28372;56.832;60.658;2023-09-18T06:45:01;98048.63;;;40.00;16.43
42727;BME280;28372;56.832;60.658;2023-09-18T06:47:32;98063.53;;;40.16;15.95
42727;BME280;28372;56.832;60.658;2023-09-18T06:50:00;98059.69;;;40.29;15.94
42727;BME280;28372;56.832;60.658;2023-09-18T06:52:29;98056.47;;;40.32;16.02
42727;BME280;28372;56.832;60.658;2023-09-18T06:54:57;98053.78;;;40.50;15.94
42727;BME280;28372;56.832;60.658;2023-09-18T06:57:29;98053.03;;;40.49;15.79
42727;BME280;28372;56.832;60.658;2023-09-18T06:59:57;98049.88;;;40.37;15.88
42727;BME280;28372;56.832;60.658;2023-09-18T07:02:25;98049.66;;;40.35;15.72
42727;BME280;28372;56.832;60.658;2023-09-18T07:04:53;98033.88;;;40.17;16.01
42727;BME280;28372;56.832;60.658;2023-09-18T07:07:20;98029.56;;;39.85;15.67
42727;BME280;28372;56.832;60.658;2023-09-18T07:09:53;98033.56;;;39.58;15.75
42727;BME280;28372;56.832;60.658;2023-09-18T07:12:30;98032.25;;;39.21;16.27
42727;BME280;28372;56.832;60.658;2023-09-18T07:15:03;98040.69;;;39.13;15.96
42727;BME280;28372;56.832;60.658;2023-09-18T07:17:32;98022.72;;;38.72;16.39
42727;BME280;28372;56.832;60.658;2023-09-18T07:20:01;98029.72;;;38.42;16.80
42727;BME280;28372;56.832;60.658;2023-09-18T07:22:35;98016.47;;;37.93;17.17
42727;BME280;28372;56.832;60.658;2023-09-18T07:25:03;98025.59;;;37.28;17.32
42727;BME280;28372;56.832;60.658;2023-09-18T07:27:31;98012.59;;;36.90;17.96
42727;BME280;28372;56.832;60.658;2023-09-18T07:29:59;98015.81;;;36.60;18.30
42727;BME280;28372;56.832;60.658;2023-09-18T07:32:27;98016.44;;;36.31;18.85
42727;BME280;28372;56.832;60.658;2023-09-18T07:35:06;98019.78;;;36.03;19.02
42727;BME280;28372;56.832;60.658;2023-09-18T07:37:35;98017.50;;;35.75;19.57
42727;BME280;28372;56.832;60.658;2023-09-18T07:40:05;98025.25;;;35.55;19.36
42727;BME280;28372;56.832;60.658;2023-09-18T07:42:33;98017.13;;;35.19;19.82
42727;BME280;28372;56.832;60.658;2023-09-18T07:45:01;98009.25;;;34.85;20.16
42727;BME280;28372;56.832;60.658;2023-09-18T07:47:31;98009.31;;;34.60;20.51
42727;BME280;28372;56.832;60.658;2023-09-18T07:49:59;98006.66;;;34.49;20.36
42727;BME280;28372;56.832;60.658;2023-09-18T07:52:32;98006.34;;;34.34;20.94
42727;BME280;28372;56.832;60.658;2023-09-18T07:55:00;98004.41;;;34.23;21.19
42727;BME280;28372;56.832;60.658;2023-09-18T07:57:30;98004.31;;;34.09;20.89
42727;BME280;28372;56.832;60.658;2023-09-18T08:00:01;97993.97;;;33.98;21.84
42727;BME280;28372;56.832;60.658;2023-09-18T08:02:40;97995.44;;;33.80;21.40
42727;BME280;28372;56.832;60.658;2023-09-18T08:05:10;97990.78;;;33.64;21.62
42727;BME280;28372;56.832;60.658;2023-09-18T08:07:38;97982.66;;;33.30;21.96
42727;BME280;28372;56.832;60.658;2023-09-18T08:10:06;97984.78;;;33.18;22.04
42727;BME280;28372;56.832;60.658;2023-09-18T08:12:36;97983.78;;;32.79;22.34
42727;BME280;28372;56.832;60.658;2023-09-18T08:15:04;97974.56;;;32.43;22.98
42727;BME280;28372;56.832;60.658;2023-09-18T08:17:33;97978.31;;;31.98;23.30
42727;BME280;28372;56.832;60.658;2023-09-18T08:20:01;97970.22;;;31.83;23.59
42727;BME280;28372;56.832;60.658;2023-09-18T08:22:29;97979.66;;;31.52;24.06
42727;BME280;28372;56.832;60.658;2023-09-18T08:24:57;97980.69;;;30.98;24.23
42727;BME280;28372;56.832;60.658;2023-09-18T08:27:25;97969.50;;;30.75;24.91
42727;BME280;28372;56.832;60.658;2023-09-18T08:29:52;97973.78;;;30.59;24.71
42727;BME280;28372;56.832;60.658;2023-09-18T08:32:20;97970.72;;;30.51;24.75
42727;BME280;28372;56.832;60.658;2023-09-18T08:34:48;97967.31;;;30.19;25.44
42727;BME280;28372;56.832;60.658;2023-09-18T08:37:16;97960.44;;;30.14;25.57
42727;BME280;28372;56.832;60.658;2023-09-18T08:39:43;97958.13;;;30.13;25.71
42727;BME280;28372;56.832;60.658;2023-09-18T08:42:12;97960.69;;;30.11;25.99
42727;BME280;28372;56.832;60.658;2023-09-18T08:44:43;97959.47;;;30.23;26.17
42727;BME280;28372;56.832;60.658;2023-09-18T08:47:14;97957.13;;;30.10;25.56
42727;BME280;28372;56.832;60.658;2023-09-18T08:49:43;97952.16;;;29.82;26.08
42727;BME280;28372;56.832;60.658;2023-09-18T08:52:11;97941.41;;;29.64;26.04
42727;BME280;28372;56.832;60.658;2023-09-18T08:54:40;97949.56;;;29.73;25.78
42727;BME280;28372;56.832;60.658;2023-09-18T08:57:08;97943.72;;;29.71;25.98
42727;BME280;28372;56.832;60.658;2023-09-18T08:59:36;97941.66;;;29.60;26.14
42727;BME280;28372;56.832;60.658;2023-09-18T09:02:04;97934.22;;;29.46;26.33
42727;BME280;28372;56.832;60.658;2023-09-18T09:04:32;97928.31;;;29.32;26.02
42727;BME280;28372;56.832;60.658;2023-09-18T09:07:00;97932.97;;;29.15;26.38
42727;BME280;28372;56.832;60.658;2023-09-18T09:09:28;97933.25;;;29.17;25.46
42727;BME280;28372;56.832;60.658;2023-09-18T09:11:55;97929.31;;;28.71;25.58
42727;BME280;28372;56.832;60.658;2023-09-18T09:14:23;97936.38;;;28.46;26.20
42727;BME280;28372;56.832;60.658;2023-09-18T09:16:57;97930.59;;;28.02;26.69
42727;BME280;28372;56.832;60.658;2023-09-18T09:19:33;97935.53;;;28.13;26.78
42727;BME280;28372;56.832;60.658;2023-09-18T09:22:04;97932.13;;;27.47;27.64
42727;BME280;28372;56.832;60.658;2023-09-18T09:24:43;97920.75;;;27.66;27.91
42727;BME280;28372;56.832;60.658;2023-09-18T09:27:11;97923.16;;;27.38;27.76
42727;BME280;28372;56.832;60.658;2023-09-18T09:29:41;97914.88;;;27.58;27.79
42727;BME280;28372;56.832;60.658;2023-09-18T09:32:18;97920.84;;;27.92;27.86
42727;BME280;28372;56.832;60.658;2023-09-18T09:34:47;97916.31;;;27.53;28.03
42727;BME280;28372;56.832;60.658;2023-09-18T09:37:15;97908.38;;;27.46;27.75
42727;BME280;28372;56.832;60.658;2023-09-18T09:39:50;97915.91;;;27.61;28.15
42727;BME280;28372;56.832;60.658;2023-09-18T09:42:19;97920.56;;;27.34;27.93
42727;BME280;28372;56.832;60.658;2023-09-18T09:45:02;97909.91;;;26.97;28.73
42727;BME280;28372;56.832;60.658;2023-09-18T09:47:34;97908.75;;;26.89;28.41
42727;BME280;28372;56.832;60.658;2023-09-18T09:50:11;97910.47;;;27.16;28.62
42727;BME280;28372;56.832;60.658;2023-09-18T09:52:42;97899.84;;;26.84;28.82
42727;BME280;28372;56.832;60.658;2023-09-18T09:55:25;97898.34;;;26.83;28.85
42727;BME280;28372;56.832;60.658;2023-09-18T09:57:58;97900.47;;;26.74;28.87
42727;BME280;28372;56.832;60.658;2023-09-18T10:00:41;97896.53;;;26.11;29.02
42727;BME280;28372;56.832;60.658;2023-09-18T10:03:17;97903.13;;;25.65;29.57
42727;BME280;28372;56.832;60.658;2023-09-18T10:05:48;97898.84;;;25.64;30.11
42727;BME280;28372;56.832;60.658;2023-09-18T10:08:21;97898.78;;;25.74;29.84
42727;BME280;28372;56.832;60.658;2023-09-18T10:10:51;97897.44;;;25.69;29.88
42727;BME280;28372;56.832;60.658;2023-09-18T10:14:02;97884.19;;;25.49;30.74
42727;BME280;28372;56.832;60.658;2023-09-18T10:16:33;97889.28;;;25.41;30.59
42727;BME280;28372;56.832;60.658;2023-09-18T10:19:10;97877.94;;;25.39;30.52
42727;BME280;28372;56.832;60.658;2023-09-18T10:21:50;97887.94;;;25.37;30.16
42727;BME280;28372;56.832;60.658;2023-09-18T10:24:25;97884.69;;;25.62;29.81
42727;BME280;28372;56.832;60.658;2023-09-18T10:29:27;97873.69;;;24.77;31.21
42727;BME280;28372;56.832;60.658;2023-09-18T10:31:56;97866.75;;;24.91;30.58
42727;BME280;28372;56.832;60.658;2023-09-18T10:34:24;97876.56;;;25.35;30.40
42727;BME280;28372;56.832;60.658;2023-09-18T10:36:54;97878.22;;;25.41;30.42
42727;BME280;28372;56.832;60.658;2023-09-18T10:39:24;97873.50;;;25.23;31.02
42727;BME280;28372;56.832;60.658;2023-09-18T10:41:54;97868.75;;;25.24;30.69
42727;BME280;28372;56.832;60.658;2023-09-18T10:44:24;97862.63;;;25.20;30.58
42727;BME280;28372;56.832;60.658;2023-09-18T10:46:52;97862.66;;;25.10;30.76
42727;BME280;28372;56.832;60.658;2023-09-18T10:49:20;97876.66;;;24.64;31.51
42727;BME280;28372;56.832;60.658;2023-09-18T10:51:54;97864.38;;;24.65;31.67
42727;BME280;28372;56.832;60.658;2023-09-18T10:54:27;97873.16;;;24.45;32.23
42727;BME280;28372;56.832;60.658;2023-09-18T10:56:56;97857.53;;;24.14;32.83
42727;BME280;28372;56.832;60.658;2023-09-18T10:59:24;97866.69;;;23.65;33.31
42727;BME280;28372;56.832;60.658;2023-09-18T11:01:53;97847.66;;;23.48;33.76
42727;BME280;28372;56.832;60.658;2023-09-18T11:04:23;97856.50;;;23.24;34.74
42727;BME280;28372;56.832;60.658;2023-09-18T11:09:24;97857.53;;;23.18;34.80
42727;BME280;28372;56.832;60.658;2023-09-18T11:11:54;97849.09;;;23.12;35.13
42727;BME280;28372;56.832;60.658;2023-09-18T11:14:57;97845.34;;;23.47;34.68
42727;BME280;28372;56.832;60.658;2023-09-18T11:17:38;97843.63;;;23.31;34.88
42727;BME280;28372;56.832;60.658;2023-09-18T11:20:08;97828.47;;;22.95;35.40
42727;BME280;28372;56.832;60.658;2023-09-18T11:22:47;97839.31;;;23.20;34.88
42727;BME280;28372;56.832;60.658;2023-09-18T11:25:34;97830.31;;;23.48;34.52
42727;BME280;28372;56.832;60.658;2023-09-18T11:28:13;97833.81;;;23.30;34.89
42727;BME280;28372;56.832;60.658;2023-09-18T11:33:32;97829.38;;;23.23;34.75
42727;BME280;28372;56.832;60.658;2023-09-18T11:38:35;97821.31;;;23.06;35.14
42727;BME280;28372;56.832;60.658;2023-09-18T11:41:26;97818.16;;;23.26;35.08
42727;BME280;28372;56.832;60.658;2023-09-18T11:46:45;97809.09;;;22.76;35.29
42727;BME280;28372;56.832;60.658;2023-09-18T11:49:19;97809.91;;;22.86;35.01
42727;BME280;28372;56.832;60.658;2023-09-18T11:51:50;97802.19;;;22.71;34.84
42727;BME280;28372;56.832;60.658;2023-09-18T11:54:18;97801.34;;;22.52;35.18
42727;BME280;28372;56.832;60.658;2023-09-18T11:56:46;97803.34;;;22.30;35.38
42727;BME280;28372;56.832;60.658;2023-09-18T11:59:14;97794.88;;;22.24;35.94
42727;BME280;28372;56.832;60.658;2023-09-18T12:01:41;97795.75;;;22.34;35.69
42727;BME280;28372;56.832;60.658;2023-09-18T12:04:13;97799.38;;;22.53;35.17
42727;BME280;28372;56.832;60.658;2023-09-18T12:06:41;97793.75;;;22.66;34.77
42727;BME280;28372;56.832;60.658;2023-09-18T12:09:12;97795.00;;;22.42;35.50
42727;BME280;28372;56.832;60.658;2023-09-18T12:11:41;97792.59;;;22.45;35.70
42727;BME280;28372;56.832;60.658;2023-09-18T12:14:09;97779.97;;;22.34;35.98
42727;BME280;28372;56.832;60.658;2023-09-18T12:16:38;97790.75;;;22.41;35.84
42727;BME280;28372;56.832;60.658;2023-09-18T12:19:16;97782.50;;;22.51;36.05
42727;BME280;28372;56.832;60.658;2023-09-18T12:21:46;97771.47;;;22.51;35.74
42727;BME280;28372;56.832;60.658;2023-09-18T12:24:24;97774.13;;;22.32;36.29
42727;BME280;28372;56.832;60.658;2023-09-18T12:26:54;97770.44;;;22.04;37.29
42727;BME280;28372;56.832;60.658;2023-09-18T12:29:23;97768.50;;;22.14;36.99
42727;BME280;28372;56.832;60.658;2023-09-18T12:31:51;97763.31;;;22.38;36.14
42727;BME280;28372;56.832;60.658;2023-09-18T12:34:21;97755.34;;;22.71;35.66
42727;BME280;28372;56.832;60.658;2023-09-18T12:36:50;97761.38;;;22.98;35.32
42727;BME280;28372;56.832;60.658;2023-09-18T12:39:18;97756.91;;;22.91;35.54
42727;BME280;28372;56.832;60.658;2023-09-18T12:41:48;97762.41;;;22.41;36.84
42727;BME280;28372;56.832;60.658;2023-09-18T12:44:16;97747.97;;;22.05;37.67
42727;BME280;28372;56.832;60.658;2023-09-18T12:49:19;97762.03;;;21.85;38.87
42727;BME280;28372;56.832;60.658;2023-09-18T12:52:01;97753.53;;;21.70;39.64
42727;BME280;28372;56.832;60.658;2023-09-18T12:54:45;97757.44;;;21.47;40.25
42727;BME280;28372;56.832;60.658;2023-09-18T12:57:20;97754.16;;;21.04;41.26
42727;BME280;28372;56.832;60.658;2023-09-18T12:59:48;97769.59;;;20.89;41.46
42727;BME280;28372;56.832;60.658;2023-09-18T13:02:21;97748.25;;;20.93;41.56
42727;BME280;28372;56.832;60.658;2023-09-18T13:04:56;97752.19;;;20.92;41.58
42727;BME280;28372;56.832;60.658;2023-09-18T13:07:24;97740.88;;;20.90;41.99
42727;BME280;28372;56.832;60.658;2023-09-18T13:10:05;97747.91;;;20.91;42.19
42727;BME280;28372;56.832;60.658;2023-09-18T13:15:08;97744.22;;;20.72;42.78
42727;BME280;28372;56.832;60.658;2023-09-18T13:17:41;97743.53;;;20.68;43.04
42727;BME280;28372;56.832;60.658;2023-09-18T13:22:48;97746.81;;;20.76;43.54
42727;BME280;28372;56.832;60.658;2023-09-18T13:25:20;97737.25;;;20.67;44.59
42727;BME280;28372;56.832;60.658;2023-09-18T13:27:52;97741.53;;;20.81;43.99